sensor_id;sensor_type;location;lat;lon;timestamp;pressure;altitude;pressure_sealevel;temperature;humidity
27864;BME280;15980;51.092;13.916;2023-06-14T00:01:30;98667.09;;;11.67;79.28
27864;BME280;15980;51.092;13.916;2023-06-14T00:11:33;98666.44;;;11.57;80.38
27864;BME280;15980;51.092;13.916;2023-06-14T00:21:33;98650.03;;;11.33;81.73
27864;BME280;15980;51.092;13.916;2023-06-14T00:31:33;98663.53;;;11.14;83.32
27864;BME280;15980;51.092;13.916;2023-06-14T00:41:33;98653.59;;;11.09;84.58
27864;BME280;15980;51.092;13.916;2023-06-14T00:51:34;98654.06;;;11.11;85.13
27864;BME280;15980;51.092;13.916;2023-06-14T01:01:34;98647.41;;;11.12;84.87
27864;BME280;15980;51.092;13.916;2023-06-14T01:12:18;98640.00;;;11.00;85.84
27864;BME280;15980;51.092;13.916;2023-06-14T01:22:21;98642.16;;;10.83;85.78
27864;BME280;15980;51.092;13.916;2023-06-14T01:32:21;98635.88;;;10.70;85.92
27864;BME280;15980;51.092;13.916;2023-06-14T01:42:22;98633.25;;;10.61;86.50
27864;BME280;15980;51.092;13.916;2023-06-14T01:52:23;98631.41;;;10.41;87.16
27864;BME280;15980;51.092;13.916;2023-06-14T02:02:23;98637.84;;;10.24;88.06
27864;BME280;15980;51.092;13.916;2023-06-14T02:12:23;98644.88;;;10.13;88.55
27864;BME280;15980;51.092;13.916;2023-06-14T02:22:24;98648.41;;;10.01;89.08
27864;BME280;15980;51.092;13.916;2023-06-14T02:32:24;98652.56;;;9.87;89.12
27864;BME280;15980;51.092;13.916;2023-06-14T02:42:24;98654.09;;;9.75;89.85
27864;BME280;15980;51.092;13.916;2023-06-14T02:52:24;98663.13;;;9.76;89.86
27864;BME280;15980;51.092;13.916;2023-06-14T03:02:25;98679.31;;;9.69;89.17
27864;BME280;15980;51.092;13.916;2023-06-14T03:12:25;98674.56;;;9.78;89.77
27864;BME280;15980;51.092;13.916;2023-06-14T03:22:25;98683.84;;;9.86;88.47
27864;BME280;15980;51.092;13.916;2023-06-14T03:32:25;98685.84;;;9.97;88.12
27864;BME280;15980;51.092;13.916;2023-06-14T03:42:26;98692.63;;;10.12;87.72
27864;BME280;15980;51.092;13.916;2023-06-14T03:52:27;98705.59;;;10.57;87.90
27864;BME280;15980;51.092;13.916;2023-06-14T04:02:27;98713.22;;;11.09;86.12
27864;BME280;15980;51.092;13.916;2023-06-14T04:12:27;98718.66;;;11.57;84.24
27864;BME280;15980;51.092;13.916;2023-06-14T04:22:27;98719.28;;;12.31;82.39
27864;BME280;15980;51.092;13.916;2023-06-14T04:32:28;98719.94;;;12.56;80.50
27864;BME280;15980;51.092;13.916;2023-06-14T04:42:29;98730.06;;;12.52;79.91
27864;BME280;15980;51.092;13.916;2023-06-14T04:52:29;98744.16;;;12.78;80.49
27864;BME280;15980;51.092;13.916;2023-06-14T05:02:29;98757.50;;;13.08;78.99
27864;BME280;15980;51.092;13.916;2023-06-14T05:12:30;98753.16;;;13.89;75.92
27864;BME280;15980;51.092;13.916;2023-06-14T05:22:30;98759.13;;;14.30;73.42
27864;BME280;15980;51.092;13.916;2023-06-14T05:32:30;98761.06;;;14.87;71.98
27864;BME280;15980;51.092;13.916;2023-06-14T05:42:30;98763.63;;;15.45;69.78
27864;BME280;15980;51.092;13.916;2023-06-14T05:52:31;98747.09;;;15.22;71.12
27864;BME280;15980;51.092;13.916;2023-06-14T06:02:31;98767.53;;;14.95;71.26
27864;BME280;15980;51.092;13.916;2023-06-14T06:12:31;98775.19;;;14.82;70.49
27864;BME280;15980;51.092;13.916;2023-06-14T06:22:32;98797.63;;;15.00;69.34
27864;BME280;15980;51.092;13.916;2023-06-14T06:32:32;98804.91;;;15.12;68.81
27864;BME280;15980;51.092;13.916;2023-06-14T06:42:32;98795.91;;;15.60;67.14
27864;BME280;15980;51.092;13.916;2023-06-14T06:52:33;98793.84;;;16.07;66.48
27864;BME280;15980;51.092;13.916;2023-06-14T07:02:33;98803.19;;;16.25;63.60
27864;BME280;15980;51.092;13.916;2023-06-14T07:12:33;98808.03;;;16.31;61.48
27864;BME280;15980;51.092;13.916;2023-06-14T07:22:34;98809.88;;;16.84;59.74
27864;BME280;15980;51.092;13.916;2023-06-14T07:32:34;98810.78;;;16.91;59.68
27864;BME280;15980;51.092;13.916;2023-06-14T07:42:34;98827.38;;;17.28;58.11
27864;BME280;15980;51.092;13.916;2023-06-14T07:52:35;98828.16;;;17.29;54.34
27864;BME280;15980;51.092;13.916;2023-06-14T08:02:35;98829.56;;;17.97;52.22
27864;BME280;15980;51.092;13.916;2023-06-14T08:12:36;98841.22;;;19.07;47.07
27864;BME280;15980;51.092;13.916;2023-06-14T08:22:37;98841.34;;;19.89;48.69
27864;BME280;15980;51.092;13.916;2023-06-14T08:32:37;98860.84;;;19.82;44.25
27864;BME280;15980;51.092;13.916;2023-06-14T08:42:37;98840.09;;;19.23;46.51
27864;BME280;15980;51.092;13.916;2023-06-14T08:52:38;98842.09;;;19.47;46.21
27864;BME280;15980;51.092;13.916;2023-06-14T09:02:41;98848.88;;;20.17;44.58
27864;BME280;15980;51.092;13.916;2023-06-14T09:12:41;98844.34;;;20.80;44.13
27864;BME280;15980;51.092;13.916;2023-06-14T09:22:42;98853.09;;;22.86;41.82
27864;BME280;15980;51.092;13.916;2023-06-14T09:32:42;98843.81;;;22.21;42.29
27864;BME280;15980;51.092;13.916;2023-06-14T09:42:42;98833.78;;;22.27;40.90
27864;BME280;15980;51.092;13.916;2023-06-14T09:52:44;98846.75;;;20.75;45.30
27864;BME280;15980;51.092;13.916;2023-06-14T10:02:53;98834.84;;;20.63;45.86
27864;BME280;15980;51.092;13.916;2023-06-14T10:12:54;98830.13;;;20.32;45.97
27864;BME280;15980;51.092;13.916;2023-06-14T10:23:24;98827.28;;;20.64;45.75
27864;BME280;15980;51.092;13.916;2023-06-14T10:33:26;98814.72;;;21.08;44.96
27864;BME280;15980;51.092;13.916;2023-06-14T10:43:26;98811.16;;;21.62;43.63
27864;BME280;15980;51.092;13.916;2023-06-14T10:53:26;98813.44;;;21.78;45.97
27864;BME280;15980;51.092;13.916;2023-06-14T11:03:50;98803.00;;;21.86;45.53
27864;BME280;15980;51.092;13.916;2023-06-14T11:13:51;98799.84;;;21.84;45.53
27864;BME280;15980;51.092;13.916;2023-06-14T11:23:52;98816.13;;;22.34;45.17
27864;BME280;15980;51.092;13.916;2023-06-14T11:33:57;98810.31;;;22.51;44.51
27864;BME280;15980;51.092;13.916;2023-06-14T11:44:00;98813.31;;;21.44;47.74
27864;BME280;15980;51.092;13.916;2023-06-14T11:54:02;98805.16;;;21.09;46.72
27864;BME280;15980;51.092;13.916;2023-06-14T12:04:03;98801.97;;;21.07;48.65
27864;BME280;15980;51.092;13.916;2023-06-14T12:14:04;98786.38;;;22.50;46.65
27864;BME280;15980;51.092;13.916;2023-06-14T12:24:05;98791.00;;;22.64;46.26
27864;BME280;15980;51.092;13.916;2023-06-14T12:34:07;98785.97;;;20.45;52.61
27864;BME280;15980;51.092;13.916;2023-06-14T12:44:07;98792.84;;;22.03;49.04
27864;BME280;15980;51.092;13.916;2023-06-14T12:54:08;98786.00;;;22.11;47.43
27864;BME280;15980;51.092;13.916;2023-06-14T13:04:09;98776.78;;;20.51;51.98
27864;BME280;15980;51.092;13.916;2023-06-14T13:14:09;98765.78;;;21.55;47.65
27864;BME280;15980;51.092;13.916;2023-06-14T13:24:09;98763.38;;;23.00;44.93
27864;BME280;15980;51.092;13.916;2023-06-14T13:34:10;98769.69;;;22.06;44.82
27864;BME280;15980;51.092;13.916;2023-06-14T13:44:10;98762.00;;;21.24;48.86
27864;BME280;15980;51.092;13.916;2023-06-14T13:54:12;98756.88;;;21.15;47.16
27864;BME280;15980;51.092;13.916;2023-06-14T14:04:13;98758.94;;;21.04;46.62
27864;BME280;15980;51.092;13.916;2023-06-14T14:14:13;98763.84;;;21.48;43.54
27864;BME280;15980;51.092;13.916;2023-06-14T14:24:13;98755.88;;;22.29;43.22
27864;BME280;15980;51.092;13.916;2023-06-14T14:34:14;98745.44;;;23.48;40.53
27864;BME280;15980;51.092;13.916;2023-06-14T14:44:14;98742.78;;;23.64;37.75
27864;BME280;15980;51.092;13.916;2023-06-14T14:54:15;98737.28;;;24.43;38.77
27864;BME280;15980;51.092;13.916;2023-06-14T15:04:15;98740.47;;;23.32;42.02
27864;BME280;15980;51.092;13.916;2023-06-14T15:14:15;98742.50;;;22.13;42.32
27864;BME280;15980;51.092;13.916;2023-06-14T15:24:16;98741.38;;;22.04;42.05
27864;BME280;15980;51.092;13.916;2023-06-14T15:34:16;98745.94;;;22.59;38.31
27864;BME280;15980;51.092;13.916;2023-06-14T15:44:17;98754.75;;;22.57;37.70
27864;BME280;15980;51.092;13.916;2023-06-14T15:54:17;98748.25;;;22.64;39.01
27864;BME280;15980;51.092;13.916;2023-06-14T16:04:17;98727.25;;;23.09;39.85
27864;BME280;15980;51.092;13.916;2023-06-14T16:14:17;98727.75;;;23.28;38.79
27864;BME280;15980;51.092;13.916;2023-06-14T16:24:18;98718.78;;;23.63;37.95
27864;BME280;15980;51.092;13.916;2023-06-14T16:34:18;98725.78;;;23.75;36.86
27864;BME280;15980;51.092;13.916;2023-06-14T16:44:18;98724.97;;;23.98;37.68
27864;BME280;15980;51.092;13.916;2023-06-14T16:54:19;98729.91;;;23.43;38.95
27864;BME280;15980;51.092;13.916;2023-06-14T17:04:19;98729.78;;;23.74;39.01
27864;BME280;15980;51.092;13.916;2023-06-14T17:14:19;98741.28;;;23.79;37.78
27864;BME280;15980;51.092;13.916;2023-06-14T17:24:20;98756.50;;;22.44;39.47
27864;BME280;15980;51.092;13.916;2023-06-14T17:34:20;98762.06;;;22.13;41.67
27864;BME280;15980;51.092;13.916;2023-06-14T17:44:20;98770.28;;;21.86;42.46
27864;BME280;15980;51.092;13.916;2023-06-14T17:54:20;98762.44;;;21.15;44.99
27864;BME280;15980;51.092;13.916;2023-06-14T18:04:21;98775.78;;;20.90;47.02
27864;BME280;15980;51.092;13.916;2023-06-14T18:14:22;98773.59;;;20.46;48.84
27864;BME280;15980;51.092;13.916;2023-06-14T18:24:22;98784.06;;;20.02;49.33
27864;BME280;15980;51.092;13.916;2023-06-14T18:34:23;98786.88;;;19.60;50.92
27864;BME280;15980;51.092;13.916;2023-06-14T18:44:23;98782.47;;;19.27;51.44
27864;BME280;15980;51.092;13.916;2023-06-14T18:54:24;98783.59;;;18.97;53.73
27864;BME280;15980;51.092;13.916;2023-06-14T19:04:24;98792.59;;;18.59;55.30
27864;BME280;15980;51.092;13.916;2023-06-14T19:14:24;98797.94;;;18.19;57.37
27864;BME280;15980;51.092;13.916;2023-06-14T19:24:25;98805.69;;;17.82;59.80
27864;BME280;15980;51.092;13.916;2023-06-14T19:34:25;98802.91;;;17.38;63.18
27864;BME280;15980;51.092;13.916;2023-06-14T19:44:26;98804.88;;;16.97;65.00
27864;BME280;15980;51.092;13.916;2023-06-14T19:54:26;98817.50;;;16.60;67.29
27864;BME280;15980;51.092;13.916;2023-06-14T20:04:26;98827.69;;;16.23;67.51
27864;BME280;15980;51.092;13.916;2023-06-14T20:14:27;98831.16;;;15.90;69.01
27864;BME280;15980;51.092;13.916;2023-06-14T20:24:27;98837.84;;;15.62;69.89
27864;BME280;15980;51.092;13.916;2023-06-14T20:34:28;98834.50;;;15.30;70.56
27864;BME280;15980;51.092;13.916;2023-06-14T20:44:28;98836.66;;;14.98;72.47
27864;BME280;15980;51.092;13.916;2023-06-14T20:54:28;98840.88;;;14.73;73.51
27864;BME280;15980;51.092;13.916;2023-06-14T21:04:28;98842.78;;;14.50;73.90
27864;BME280;15980;51.092;13.916;2023-06-14T21:14:29;98850.31;;;14.33;74.89
27864;BME280;15980;51.092;13.916;2023-06-14T21:24:29;98854.38;;;14.04;76.03
27864;BME280;15980;51.092;13.916;2023-06-14T21:34:30;98855.31;;;13.93;77.20
27864;BME280;15980;51.092;13.916;2023-06-14T21:44:30;98849.19;;;13.68;78.50
27864;BME280;15980;51.092;13.916;2023-06-14T21:54:30;98847.69;;;13.55;78.64
27864;BME280;15980;51.092;13.916;2023-06-14T22:04:30;98850.16;;;13.44;78.39
27864;BME280;15980;51.092;13.916;2023-06-14T22:14:31;98858.50;;;13.32;78.70
27864;BME280;15980;51.092;13.916;2023-06-14T22:24:31;98855.97;;;13.11;78.95
27864;BME280;15980;51.092;13.916;2023-06-14T22:34:31;98858.09;;;13.02;80.09
27864;BME280;15980;51.092;13.916;2023-06-14T22:44:33;98854.19;;;13.03;80.82
27864;BME280;15980;51.092;13.916;2023-06-14T22:54:34;98852.41;;;13.10;80.96
27864;BME280;15980;51.092;13.916;2023-06-14T23:04:34;98855.16;;;13.10;80.64
27864;BME280;15980;51.092;13.916;2023-06-14T23:14:35;98850.50;;;13.27;80.99
27864;BME280;15980;51.092;13.916;2023-06-14T23:24:36;98854.84;;;13.28;80.01
27864;BME280;15980;51.092;13.916;2023-06-14T23:34:36;98845.25;;;13.22;80.98
27864;BME280;15980;51.092;13.916;2023-06-14T23:44:36;98833.22;;;13.14;81.24
27864;BME280;15980;51.092;13.916;2023-06-14T23:54:37;98835.34;;;13.05;82.66
